TimeEST,TemperatureF,Dew PointF,Humidity,Sea Level PressureIn,VisibilityMPH,Wind Direction,Wind SpeedMPH,Gust SpeedMPH,PrecipitationIn,Events,Conditions,WindDirDegrees,DateUTC
12:00 AM,37.4,35.6,93,30.06,10.0,Calm,Calm,-,N/A,,Overcast,0,2010-01-01 05:00:00
12:20 AM,37.4,35.6,93,30.07,10.0,Calm,Calm,-,N/A,,Overcast,0,2010-01-01 05:20:00
12:40 AM,37.4,35.6,93,30.06,10.0,Calm,Calm,-,N/A,,Overcast,0,2010-01-01 05:40:00
1:00 AM,37.4,35.6,93,30.06,10.0,Calm,Calm,-,N/A,,Overcast,0,2010-01-01 06:00:00
1:20 AM,37.4,35.6,93,30.06,10.0,West,3.5,-,N/A,,Overcast,280,2010-01-01 06:20:00
1:40 AM,37.4,35.6,93,30.06,10.0,West,3.5,-,N/A,,Overcast,280,2010-01-01 06:40:00
2:00 AM,37.4,35.6,93,30.06,10.0,West,4.6,-,N/A,,Overcast,280,2010-01-01 07:00:00
2:20 AM,37.4,35.6,93,30.07,10.0,West,3.5,-,N/A,,Overcast,280,2010-01-01 07:20:00
2:40 AM,37.4,35.6,93,30.08,10.0,West,5.8,-,N/A,,Overcast,260,2010-01-01 07:40:00
3:00 AM,37.4,35.6,93,30.08,10.0,West,8.1,-,N/A,,Overcast,270,2010-01-01 08:00:00
3:20 AM,35.6,33.8,93,30.08,10.0,West,3.5,-,N/A,,Overcast,280,2010-01-01 08:20:00
3:40 AM,35.6,33.8,93,30.08,10.0,West,5.8,-,N/A,,Overcast,270,2010-01-01 08:40:00
4:00 AM,35.6,33.8,93,30.08,10.0,West,4.6,-,N/A,,Overcast,270,2010-01-01 09:00:00
4:20 AM,35.6,33.8,93,30.07,10.0,WNW,5.8,-,N/A,,Overcast,290,2010-01-01 09:20:00
4:40 AM,35.6,33.8,93,30.08,10.0,WNW,6.9,-,N/A,,Overcast,290,2010-01-01 09:40:00
5:00 AM,35.6,32.0,87,30.09,10.0,West,5.8,-,N/A,,Overcast,270,2010-01-01 10:00:00
5:20 AM,35.6,32.0,87,30.08,10.0,West,5.8,-,N/A,,Overcast,280,2010-01-01 10:20:00
5:40 AM,35.6,32.0,87,30.08,10.0,West,5.8,-,N/A,,Overcast,280,2010-01-01 10:40:00
6:00 AM,35.6,32.0,87,30.09,10.0,WNW,4.6,-,N/A,,Overcast,290,2010-01-01 11:00:00
6:20 AM,35.6,32.0,87,30.09,10.0,WNW,3.5,-,N/A,,Overcast,290,2010-01-01 11:20:00
6:40 AM,33.8,32.0,93,30.09,10.0,West,6.9,-,N/A,,Overcast,280,2010-01-01 11:40:00
7:00 AM,33.8,32.0,93,30.09,10.0,West,3.5,-,N/A,,Overcast,280,2010-01-01 12:00:00
7:20 AM,32.0,30.2,93,30.10,7.0,WNW,5.8,16.1,N/A,,Overcast,300,2010-01-01 12:20:00
7:40 AM,32.0,30.2,93,30.11,7.0,West,5.8,-,N/A,,Overcast,270,2010-01-01 12:40:00
8:00 AM,32.0,28.4,87,30.12,7.0,WNW,10.4,18.4,N/A,,Mostly Cloudy,300,2010-01-01 13:00:00
8:20 AM,30.2,26.6,86,30.13,10.0,WNW,9.2,-,N/A,,Overcast,290,2010-01-01 13:20:00
8:40 AM,28.4,23.0,80,30.14,10.0,West,11.5,17.3,N/A,,Overcast,280,2010-01-01 13:40:00
9:00 AM,28.4,21.2,74,30.16,10.0,WNW,9.2,20.7,N/A,,Mostly Cloudy,290,2010-01-01 14:00:00
9:20 AM,26.6,19.4,74,30.18,10.0,West,10.4,18.4,N/A,,Mostly Cloudy,280,2010-01-01 14:20:00
9:40 AM,24.8,19.4,80,30.19,10.0,NW,8.1,16.1,N/A,,Mostly Cloudy,310,2010-01-01 14:40:00
10:00 AM,26.6,19.4,74,30.20,7.0,West,9.2,-,N/A,Snow,Light Snow,280,2010-01-01 15:00:00
10:20 AM,26.6,19.4,74,30.20,3.0,WNW,9.2,16.1,N/A,Snow,Light Snow,290,2010-01-01 15:20:00
10:40 AM,24.8,19.4,80,30.20,5.0,West,6.9,-,N/A,Snow,Light Snow,270,2010-01-01 15:40:00
11:00 AM,26.6,19.4,74,30.21,7.0,West,8.1,-,N/A,,Mostly Cloudy,270,2010-01-01 16:00:00
11:20 AM,26.6,19.4,74,30.21,10.0,West,8.1,-,N/A,,Mostly Cloudy,280,2010-01-01 16:20:00
11:40 AM,26.6,21.2,80,30.21,2.5,WNW,5.8,-,N/A,Snow,Light Snow,290,2010-01-01 16:40:00
12:00 PM,26.6,21.2,80,30.20,2.5,West,6.9,-,N/A,Snow,Light Snow,270,2010-01-01 17:00:00
12:20 PM,26.6,19.4,74,30.19,7.0,West,5.8,-,N/A,Snow,Light Snow,270,2010-01-01 17:20:00
12:40 PM,26.6,21.2,80,30.18,5.0,West,5.8,-,N/A,Snow,Light Snow,260,2010-01-01 17:40:00
1:00 PM,26.6,21.2,80,30.18,7.0,WNW,8.1,-,N/A,Snow,Light Snow,290,2010-01-01 18:00:00
1:20 PM,28.4,19.4,69,30.17,10.0,West,8.1,-,N/A,,Mostly Cloudy,280,2010-01-01 18:20:00
1:40 PM,26.6,19.4,74,30.18,10.0,West,5.8,-,N/A,,Mostly Cloudy,280,2010-01-01 18:40:00
2:00 PM,28.4,19.4,69,30.18,10.0,WNW,4.6,-,N/A,,Mostly Cloudy,290,2010-01-01 19:00:00
2:20 PM,28.4,19.4,69,30.19,10.0,WNW,5.8,-,N/A,,Mostly Cloudy,300,2010-01-01 19:20:00
2:40 PM,28.4,19.4,69,30.19,10.0,WNW,5.8,-,N/A,,Mostly Cloudy,300,2010-01-01 19:40:00
3:00 PM,28.4,19.4,69,30.19,10.0,West,8.1,-,N/A,,Mostly Cloudy,270,2010-01-01 20:00:00
3:20 PM,26.6,19.4,74,30.20,10.0,West,4.6,-,N/A,,Mostly Cloudy,280,2010-01-01 20:20:00
3:40 PM,26.6,19.4,74,30.20,10.0,WNW,6.9,-,N/A,,Mostly Cloudy,290,2010-01-01 20:40:00
4:00 PM,26.6,19.4,74,30.20,10.0,West,6.9,-,N/A,,Mostly Cloudy,280,2010-01-01 21:00:00
4:20 PM,26.6,19.4,74,30.19,10.0,West,6.9,-,N/A,,Scattered Clouds,280,2010-01-01 21:20:00
4:40 PM,26.6,19.4,74,30.20,10.0,West,4.6,-,N/A,,Mostly Cloudy,280,2010-01-01 21:40:00
4:59 PM,26.6,19.4,74,30.20,10.0,West,5.8,-,N/A,,Mostly Cloudy,260,2010-01-01 21:59:00
5:40 PM,24.8,17.6,74,30.20,10.0,West,5.8,-,N/A,,Mostly Cloudy,260,2010-01-01 22:40:00
7:00 PM,24.8,19.4,80,30.21,10.0,WSW,9.2,-,N/A,,Mostly Cloudy,250,2010-01-02 00:00:00
7:20 PM,26.6,19.4,74,30.21,10.0,West,5.8,-,N/A,,Mostly Cloudy,260,2010-01-02 00:20:00
7:40 PM,24.8,17.6,74,30.21,10.0,West,10.4,-,N/A,,Overcast,260,2010-01-02 00:40:00
8:00 PM,24.8,17.6,74,30.20,10.0,West,5.8,-,N/A,,Mostly Cloudy,260,2010-01-02 01:00:00
8:20 PM,24.8,17.6,74,30.21,10.0,West,6.9,-,N/A,,Mostly Cloudy,260,2010-01-02 01:20:00
8:40 PM,24.8,17.6,74,30.21,10.0,West,6.9,-,N/A,,Mostly Cloudy,260,2010-01-02 01:40:00
9:00 PM,24.8,17.6,74,30.20,10.0,West,6.9,-,N/A,,Overcast,260,2010-01-02 02:00:00
9:20 PM,24.8,17.6,74,30.20,10.0,WSW,6.9,-,N/A,,Mostly Cloudy,250,2010-01-02 02:20:00
9:40 PM,24.8,17.6,74,30.19,10.0,WSW,6.9,-,N/A,,Mostly Cloudy,250,2010-01-02 02:40:00
10:00 PM,24.8,17.6,74,30.19,10.0,WSW,8.1,-,N/A,,Mostly Cloudy,250,2010-01-02 03:00:00
10:20 PM,24.8,17.6,74,30.19,10.0,WSW,8.1,-,N/A,,Overcast,240,2010-01-02 03:20:00
10:40 PM,23.0,17.6,80,30.19,7.0,WSW,6.9,-,N/A,Snow,Light Snow,250,2010-01-02 03:40:00
11:00 PM,23.0,19.4,86,30.19,7.0,West,4.6,-,N/A,,Overcast,280,2010-01-02 04:00:00
11:20 PM,23.0,19.4,86,30.19,5.0,West,3.5,-,N/A,,Haze,270,2010-01-02 04:20:00
11:40 PM,23.0,19.4,86,30.19,5.0,West,3.5,-,N/A,Snow,Light Snow,280,2010-01-02 04:40:00